createdAt,value
2023-04-10T00:01:05.782Z,99692.53
2023-04-10T00:03:34.239Z,99697.03
2023-04-10T00:06:02.572Z,99691.16
2023-04-10T00:08:30.776Z,99690.22
2023-04-10T00:10:59.056Z,99688.78
2023-04-10T00:13:27.526Z,99691.91
2023-04-10T00:15:55.946Z,99689.59
2023-04-10T00:18:25.844Z,99686.06
2023-04-10T00:20:54.008Z,99681.31
2023-04-10T00:23:22.103Z,99688.03
2023-04-10T00:25:50.395Z,99675.09
2023-04-10T00:28:18.928Z,99683.97
2023-04-10T00:30:47.057Z,99670.28
2023-04-10T00:33:15.300Z,99675.28
2023-04-10T00:35:45.214Z,99671.16
2023-04-10T00:38:13.437Z,99665.19
2023-04-10T00:40:41.944Z,99656.84
2023-04-10T00:43:10.008Z,99649.06
2023-04-10T00:45:38.273Z,99652.09
2023-04-10T00:48:07.144Z,99656.72
2023-04-10T00:50:35.675Z,99648.81
2023-04-10T00:53:05.189Z,99649.91
2023-04-10T00:55:33.310Z,99645.31
2023-04-10T00:58:01.622Z,99641.22
2023-04-10T01:00:29.883Z,99640.63
2023-04-10T01:02:58.386Z,99635.56
2023-04-10T01:05:28.989Z,99636.88
2023-04-10T01:08:10.798Z,99630.41
2023-04-10T01:10:48.410Z,99627.44
2023-04-10T01:13:23.546Z,99628.75
2023-04-10T01:15:59.778Z,99630.84
2023-04-10T01:18:33.149Z,99631.81
2023-04-10T01:21:03.956Z,99635.28
2023-04-10T01:23:54.697Z,99642.09
2023-04-10T01:26:37.978Z,99636.53
2023-04-10T01:29:09.795Z,99637.19
2023-04-10T01:31:43.131Z,99649.53
2023-04-10T01:34:17.022Z,99638.28
2023-04-10T01:36:51.326Z,99650.03
2023-04-10T01:39:22.036Z,99637.81
2023-04-10T01:41:53.017Z,99639.91
2023-04-10T01:44:26.165Z,99641.19
2023-04-10T01:46:55.542Z,99645.94
2023-04-10T01:49:25.525Z,99642.97
2023-04-10T01:51:54.768Z,99641.56
2023-04-10T01:54:23.634Z,99640.63
2023-04-10T01:56:51.739Z,99645.06
2023-04-10T01:59:20.601Z,99649.25
2023-04-10T02:01:50.248Z,99653.28
2023-04-10T02:04:18.680Z,99640.50
2023-04-10T02:06:52.904Z,99644.47
2023-04-10T02:09:27.447Z,99638.63
2023-04-10T02:12:00.404Z,99642.75
2023-04-10T02:14:29.964Z,99640.72
2023-04-10T02:17:00.688Z,99637.84
2023-04-10T02:19:30.045Z,99637.19
2023-04-10T02:21:59.981Z,99634.94
2023-04-10T02:24:28.807Z,99637.94
2023-04-10T02:26:57.964Z,99629.69
2023-04-10T02:29:26.142Z,99636.78
2023-04-10T02:31:54.322Z,99631.38
2023-04-10T02:34:23.988Z,99627.00
2023-04-10T02:36:52.443Z,99623.66
2023-04-10T02:39:20.678Z,99627.00
2023-04-10T02:41:48.780Z,99624.19
2023-04-10T02:44:16.871Z,99605.63
2023-04-10T02:46:45.058Z,99619.88
2023-04-10T02:49:13.857Z,99611.91
2023-04-10T02:51:43.355Z,99617.97
2023-04-10T02:54:11.476Z,99614.31
2023-04-10T02:56:39.594Z,99615.78
2023-04-10T02:59:08.188Z,99615.13
2023-04-10T03:01:36.408Z,99613.88
2023-04-10T03:04:05.090Z,99617.00
2023-04-10T03:06:33.296Z,99614.13
2023-04-10T03:09:02.814Z,99608.44
2023-04-10T03:11:31.456Z,99611.72
2023-04-10T03:13:59.519Z,99614.81
2023-04-10T03:16:27.858Z,99618.00
2023-04-10T03:18:56.146Z,99617.06
2023-04-10T03:21:25.379Z,99612.63
2023-04-10T03:23:53.825Z,99622.44
2023-04-10T03:26:24.194Z,99619.44
2023-04-10T03:28:52.367Z,99619.28
2023-04-10T03:31:20.760Z,99618.50
2023-04-10T03:33:49.122Z,99615.63
2023-04-10T03:36:17.437Z,99614.81
2023-04-10T03:38:45.540Z,99619.09
2023-04-10T03:41:13.795Z,99616.94
2023-04-10T03:43:43.383Z,99619.28
2023-04-10T03:46:11.560Z,99618.25
2023-04-10T03:48:39.694Z,99615.53
2023-04-10T03:51:08.545Z,99612.38
2023-04-10T03:53:36.906Z,99621.06
2023-04-10T03:56:05.393Z,99622.22
2023-04-10T03:58:33.537Z,99622.16
2023-04-10T04:01:03.308Z,99620.66
2023-04-10T04:03:31.714Z,99624.19
2023-04-10T04:06:00.019Z,99620.84
2023-04-10T04:08:28.083Z,99621.78
2023-04-10T04:10:58.760Z,99627.31
2023-04-10T04:13:27.325Z,99623.66
2023-04-10T04:15:55.884Z,99622.97
2023-04-10T04:18:25.328Z,99626.75
2023-04-10T04:20:53.516Z,99639.97
2023-04-10T04:23:21.701Z,99638.09
2023-04-10T04:25:52.894Z,99637.31
2023-04-10T04:28:20.992Z,99629.63
2023-04-10T04:30:49.187Z,99636.69
2023-04-10T04:33:17.423Z,99627.53
2023-04-10T04:35:46.975Z,99631.53
2023-04-10T04:38:16.865Z,99632.09
2023-04-10T04:40:44.994Z,99627.06
2023-04-10T04:43:13.235Z,99633.09
2023-04-10T04:45:41.355Z,99621.13
2023-04-10T04:48:09.545Z,99617.28
2023-04-10T04:50:37.730Z,99625.75
2023-04-10T04:53:08.088Z,99632.72
2023-04-10T04:55:36.977Z,99631.03
2023-04-10T04:58:05.152Z,99641.16
2023-04-10T05:00:33.330Z,99636.66
2023-04-10T05:03:02.066Z,99636.47
2023-04-10T05:05:31.791Z,99638.56
2023-04-10T05:08:00.592Z,99628.25
2023-04-10T05:10:30.217Z,99633.78
2023-04-10T05:12:58.285Z,99632.31
2023-04-10T05:15:26.456Z,99635.38
2023-04-10T05:17:54.888Z,99628.97
2023-04-10T05:20:23.060Z,99638.22
2023-04-10T05:22:53.091Z,99643.41
2023-04-10T05:25:21.332Z,99643.41
2023-04-10T05:27:51.051Z,99643.84
2023-04-10T05:30:19.354Z,99655.38
2023-04-10T05:32:47.501Z,99656.34
2023-04-10T05:35:15.671Z,99654.19
2023-04-10T05:37:43.794Z,99657.47
2023-04-10T05:40:12.293Z,99654.66
2023-04-10T05:42:40.469Z,99658.00
2023-04-10T05:45:10.752Z,99656.72
2023-04-10T05:47:38.883Z,99661.59
2023-04-10T05:50:07.825Z,99650.81
2023-04-10T05:52:36.281Z,99649.88
2023-04-10T05:55:04.698Z,99654.06
2023-04-10T05:57:33.434Z,99648.84
2023-04-10T06:00:01.851Z,99656.72
2023-04-10T06:02:32.427Z,99651.84
2023-04-10T06:05:01.052Z,99653.28
2023-04-10T06:07:29.222Z,99653.47
2023-04-10T06:09:57.437Z,99647.38
2023-04-10T06:12:25.935Z,99645.66
2023-04-10T06:14:54.619Z,99652.28
2023-04-10T06:17:24.328Z,99648.44
2023-04-10T06:19:53.952Z,99644.16
2023-04-10T06:22:22.720Z,99644.81
2023-04-10T06:24:50.778Z,99637.28
2023-04-10T06:27:18.990Z,99639.59
2023-04-10T06:29:47.156Z,99643.72
2023-04-10T06:32:15.162Z,99645.28
2023-04-10T06:34:43.361Z,99648.50
2023-04-10T06:37:12.742Z,99656.03
2023-04-10T06:39:41.009Z,99653.91
2023-04-10T06:42:09.293Z,99653.47
2023-04-10T06:44:37.485Z,99651.31
2023-04-10T06:47:07.045Z,99658.00
2023-04-10T06:49:35.149Z,99658.09
2023-04-10T06:52:03.284Z,99656.78
2023-04-10T06:54:32.873Z,99651.50
2023-04-10T06:57:01.306Z,99656.78
2023-04-10T06:59:29.384Z,99659.63
2023-04-10T07:01:57.457Z,99654.28
2023-04-10T07:04:25.653Z,99661.59
2023-04-10T07:06:53.987Z,99665.31
2023-04-10T07:09:22.598Z,99657.78
2023-04-10T07:11:52.284Z,99661.13
2023-04-10T07:14:20.625Z,99663.63
2023-04-10T07:16:50.322Z,99669.50
2023-04-10T07:19:18.497Z,99658.97
2023-04-10T07:21:50.217Z,99658.13
2023-04-10T07:24:18.890Z,99659.72
2023-04-10T07:26:47.789Z,99656.75
2023-04-10T07:29:17.380Z,99660.09
2023-04-10T07:31:46.081Z,99654.38
2023-04-10T07:34:14.260Z,99657.47
2023-04-10T07:36:43.161Z,99657.59
2023-04-10T07:39:12.650Z,99657.06
2023-04-10T07:41:40.982Z,99654.75
2023-04-10T07:44:09.113Z,99653.81
2023-04-10T07:46:39.464Z,99652.31
2023-04-10T07:49:08.793Z,99649.09
2023-04-10T07:51:37.380Z,99642.66
2023-04-10T07:54:06.285Z,99647.56
2023-04-10T07:56:34.666Z,99647.56
2023-04-10T07:59:02.909Z,99638.47
2023-04-10T08:01:31.220Z,99639.69
2023-04-10T08:04:02.914Z,99635.16
2023-04-10T08:06:34.094Z,99641.28
2023-04-10T08:09:02.741Z,99635.91
2023-04-10T08:11:32.036Z,99633.09
2023-04-10T08:14:02.808Z,99630.66
2023-04-10T08:16:32.364Z,99629.25
2023-04-10T08:19:02.720Z,99621.84
2023-04-10T08:21:32.460Z,99623.78
2023-04-10T08:24:02.644Z,99634.16
2023-04-10T08:26:30.976Z,99620.41
2023-04-10T08:29:00.947Z,99623.38
2023-04-10T08:31:30.167Z,99619.44
2023-04-10T08:33:59.305Z,99619.53
2023-04-10T08:36:29.152Z,99609.16
2023-04-10T08:38:57.430Z,99612.75
2023-04-10T08:41:25.771Z,99607.06
2023-04-10T08:43:54.603Z,99612.31
2023-04-10T08:46:24.730Z,99621.56
2023-04-10T08:49:05.518Z,99604.34
2023-04-10T08:51:40.571Z,99606.50
2023-04-10T08:54:12.106Z,99614.44
2023-04-10T08:56:42.895Z,99600.53
2023-04-10T08:59:11.108Z,99603.38
2023-04-10T09:01:41.883Z,99599.91
2023-04-10T09:04:13.288Z,99600.00
2023-04-10T09:06:42.849Z,99595.13
2023-04-10T09:09:11.190Z,99593.34
2023-04-10T09:12:04.403Z,99586.16
2023-04-10T09:14:34.294Z,99590.03
2023-04-10T09:17:19.354Z,99588.09
2023-04-10T09:19:49.202Z,99584.13
2023-04-10T09:22:19.066Z,99589.22
2023-04-10T09:24:48.764Z,99585.44
2023-04-10T09:27:32.726Z,99583.84
2023-04-10T09:30:01.331Z,99579.66
2023-04-10T09:32:40.505Z,99573.91
2023-04-10T09:35:09.701Z,99579.47
2023-04-10T09:37:40.867Z,99578.69
2023-04-10T09:40:23.070Z,99577.91
2023-04-10T09:42:51.380Z,99579.81
2023-04-10T09:45:20.895Z,99578.63
2023-04-10T09:48:03.577Z,99578.69
2023-04-10T09:50:39.505Z,99580.22
2023-04-10T09:53:10.640Z,99583.28
2023-04-10T09:55:39.332Z,99587.31
2023-04-10T09:58:08.223Z,99582.47
2023-04-10T10:00:41.118Z,99581.13
2023-04-10T10:03:11.884Z,99572.53
2023-04-10T10:05:43.048Z,99576.25
2023-04-10T10:08:16.829Z,99571.63
2023-04-10T10:10:49.566Z,99575.13
2023-04-10T10:13:26.275Z,99576.97
2023-04-10T10:16:05.484Z,99573.47
2023-04-10T10:18:40.734Z,99572.47
2023-04-10T10:21:10.555Z,99583.47
2023-04-10T10:23:44.152Z,99567.56
2023-04-10T10:26:12.548Z,99564.38
2023-04-10T10:28:42.941Z,99568.28
2023-04-10T10:31:12.473Z,99566.75
2023-04-10T10:33:42.389Z,99572.31
2023-04-10T10:36:14.049Z,99572.22
2023-04-10T10:38:53.064Z,99565.75
2023-04-10T10:41:28.626Z,99561.94
2023-04-10T10:44:03.463Z,99565.78
2023-04-10T10:46:38.231Z,99559.50
2023-04-10T10:49:06.561Z,99558.53
2023-04-10T10:51:55.747Z,99553.31
2023-04-10T10:54:33.757Z,99556.13
2023-04-10T10:57:06.624Z,99554.22
2023-04-10T10:59:55.695Z,99543.03
2023-04-10T11:02:25.290Z,99541.22
2023-04-10T11:04:54.064Z,99546.00
2023-04-10T11:07:22.288Z,99537.06
2023-04-10T11:09:57.366Z,99537.44
2023-04-10T11:12:26.400Z,99532.34
2023-04-10T11:15:02.084Z,99535.47
2023-04-10T11:17:51.533Z,99545.25
2023-04-10T11:20:22.662Z,99535.78
2023-04-10T11:23:12.018Z,99540.38
2023-04-10T11:25:53.073Z,99529.91
2023-04-10T11:28:42.274Z,99538.00
2023-04-10T11:31:24.247Z,99542.69
2023-04-10T11:34:03.241Z,99532.22
2023-04-10T11:36:32.274Z,99538.88
2023-04-10T11:39:06.021Z,99542.03
2023-04-10T11:41:39.112Z,99537.91
2023-04-10T11:44:10.330Z,99541.25
2023-04-10T11:46:39.516Z,99549.09
2023-04-10T11:49:09.792Z,99539.72
2023-04-10T11:51:38.840Z,99545.53
2023-04-10T11:54:09.233Z,99544.53
2023-04-10T11:56:39.751Z,99533.97
2023-04-10T11:59:10.812Z,99543.34
2023-04-10T12:01:43.071Z,99534.38
2023-04-10T12:04:19.264Z,99529.69
2023-04-10T12:06:48.695Z,99527.88
2023-04-10T12:09:17.716Z,99518.22
2023-04-10T12:11:55.042Z,99513.63
2023-04-10T12:14:24.145Z,99520.34
2023-04-10T12:16:53.045Z,99507.16
2023-04-10T12:19:24.308Z,99509.16
2023-04-10T12:21:52.527Z,99509.91
2023-04-10T12:24:43.333Z,99511.09
2023-04-10T12:27:18.676Z,99499.81
2023-04-10T12:29:47.276Z,99492.47
2023-04-10T12:32:15.757Z,99492.06
2023-04-10T12:34:44.353Z,99489.75
2023-04-10T12:37:12.534Z,99490.19
2023-04-10T12:39:43.343Z,99484.78
2023-04-10T12:42:19.118Z,99480.88
2023-04-10T12:44:55.054Z,99482.03
2023-04-10T12:47:23.998Z,99477.31
2023-04-10T12:50:13.807Z,99475.75
2023-04-10T12:52:43.818Z,99464.88
2023-04-10T12:55:14.274Z,99459.78
2023-04-10T12:57:46.130Z,99460.97
2023-04-10T13:00:16.673Z,99461.78
2023-04-10T13:02:46.009Z,99458.63
2023-04-10T13:05:14.664Z,99457.47
2023-04-10T13:07:42.967Z,99452.78
2023-04-10T13:10:11.580Z,99445.34
2023-04-10T13:12:40.892Z,99452.38
2023-04-10T13:15:14.494Z,99447.69
2023-04-10T13:17:44.629Z,99439.88
2023-04-10T13:20:13.657Z,99438.72
2023-04-10T13:22:41.777Z,99430.88
2023-04-10T13:25:10.618Z,99435.97
2023-04-10T13:27:38.762Z,99425.03
2023-04-10T13:30:08.381Z,99426.97
2023-04-10T13:32:38.100Z,99430.13
2023-04-10T13:35:07.246Z,99419.94
2023-04-10T13:37:35.356Z,99425.78
2023-04-10T13:40:05.378Z,99414.47
2023-04-10T13:42:34.133Z,99422.69
2023-04-10T13:45:03.756Z,99421.53
2023-04-10T13:47:32.145Z,99418.38
2023-04-10T13:50:01.761Z,99410.97
2023-04-10T13:52:29.840Z,99410.19
2023-04-10T13:54:58.099Z,99407.84
2023-04-10T13:57:26.339Z,99407.06
2023-04-10T13:59:55.091Z,99396.44
2023-04-10T14:02:23.294Z,99400.75
2023-04-10T14:04:51.519Z,99393.34
2023-04-10T14:07:22.456Z,99402.78
2023-04-10T14:09:50.605Z,99391.75
2023-04-10T14:12:19.280Z,99398.69
2023-04-10T14:14:48.578Z,99388.22
2023-04-10T14:17:16.901Z,99390.56
2023-04-10T14:19:46.462Z,99391.25
2023-04-10T14:22:14.721Z,99391.97
2023-04-10T14:24:46.499Z,99386.59
2023-04-10T14:27:15.260Z,99385.09
2023-04-10T14:29:53.935Z,99385.44
2023-04-10T14:32:23.211Z,99374.72
2023-04-10T14:34:51.523Z,99378.69
2023-04-10T14:37:20.024Z,99376.41
2023-04-10T14:39:49.705Z,99386.59
2023-04-10T14:42:17.946Z,99381.91
2023-04-10T14:44:46.172Z,99377.28
2023-04-10T14:47:14.368Z,99377.25
2023-04-10T14:49:43.064Z,99376.47
2023-04-10T14:52:13.808Z,99370.22
2023-04-10T14:54:42.245Z,99372.94
2023-04-10T14:57:12.511Z,99368.63
2023-04-10T14:59:40.752Z,99373.25
2023-04-10T15:02:08.950Z,99373.25
2023-04-10T15:04:37.383Z,99373.25
2023-04-10T15:07:05.513Z,99370.13
2023-04-10T15:09:33.855Z,99371.63
2023-04-10T15:12:02.220Z,99373.13
2023-04-10T15:14:32.405Z,99377.69
2023-04-10T15:17:00.586Z,99378.25
2023-04-10T15:19:28.752Z,99375.06
2023-04-10T15:21:56.901Z,99381.84
2023-04-10T15:24:25.049Z,99379.34
2023-04-10T15:26:54.041Z,99375.09
2023-04-10T15:29:22.181Z,99373.78
2023-04-10T15:31:52.439Z,99373.06
2023-04-10T15:34:21.990Z,99370.38
2023-04-10T15:36:50.064Z,99372.66
2023-04-10T15:39:18.487Z,99371.41
2023-04-10T15:41:48.345Z,99373.34
2023-04-10T15:44:16.452Z,99378.50
2023-04-10T15:46:47.222Z,99383.53
2023-04-10T15:49:29.867Z,99369.41
2023-04-10T15:52:06.601Z,99374.66
2023-04-10T15:54:35.132Z,99374.97
2023-04-10T15:57:03.495Z,99380.97
2023-04-10T15:59:32.131Z,99377.44
2023-04-10T16:02:00.690Z,99376.78
2023-04-10T16:04:30.316Z,99375.91
2023-04-10T16:06:58.424Z,99369.41
2023-04-10T16:09:27.173Z,99363.75
2023-04-10T16:11:56.323Z,99365.06
2023-04-10T16:14:24.767Z,99365.47
2023-04-10T16:16:53.099Z,99363.97
2023-04-10T16:19:21.242Z,99352.38
2023-04-10T16:21:51.258Z,99346.13
2023-04-10T16:24:20.908Z,99344.13
2023-04-10T16:26:49.042Z,99344.38
2023-04-10T16:29:19.925Z,99353.28
2023-04-10T16:31:48.236Z,99345.84
2023-04-10T16:34:16.504Z,99353.66
2023-04-10T16:36:44.731Z,99352.44
2023-04-10T16:39:14.178Z,99349.63
2023-04-10T16:41:42.322Z,99344.13
2023-04-10T16:44:10.615Z,99354.97
2023-04-10T16:46:38.979Z,99354.00
2023-04-10T16:49:07.213Z,99354.75
2023-04-10T16:51:35.365Z,99355.38
2023-04-10T16:54:03.806Z,99360.31
2023-04-10T16:56:34.128Z,99354.47
2023-04-10T16:59:02.296Z,99352.47
2023-04-10T17:01:31.021Z,99348.84
2023-04-10T17:03:59.278Z,99339.44
2023-04-10T17:06:27.506Z,99337.84
2023-04-10T17:08:55.849Z,99338.63
2023-04-10T17:11:24.176Z,99334.94
2023-04-10T17:13:56.335Z,99338.78
2023-04-10T17:16:24.471Z,99338.38
2023-04-10T17:18:53.413Z,99350.38
2023-04-10T17:21:21.780Z,99365.19
2023-04-10T17:23:51.163Z,99386.28
2023-04-10T17:26:19.368Z,99390.56
2023-04-10T17:28:47.661Z,99414.22
2023-04-10T17:31:18.604Z,99406.97
2023-04-10T17:33:46.851Z,99392.75
2023-04-10T17:36:18.102Z,99380.78
2023-04-10T17:38:46.427Z,99381.44
2023-04-10T17:41:17.184Z,99380.16
2023-04-10T17:43:45.465Z,99372.03
2023-04-10T17:46:18.621Z,99375.69
2023-04-10T17:48:46.801Z,99377.97
2023-04-10T17:51:14.962Z,99365.19
2023-04-10T17:53:43.095Z,99362.47
2023-04-10T17:56:18.733Z,99359.44
2023-04-10T17:58:46.997Z,99354.28
2023-04-10T18:01:24.449Z,99365.19
2023-04-10T18:03:52.971Z,99363.53
2023-04-10T18:06:21.157Z,99368.88
2023-04-10T18:08:49.433Z,99364.69
2023-04-10T18:11:18.008Z,99362.22
2023-04-10T18:13:47.006Z,99355.22
2023-04-10T18:16:15.529Z,99356.72
2023-04-10T18:18:45.115Z,99364.03
2023-04-10T18:21:13.651Z,99359.75
2023-04-10T18:23:42.150Z,99370.03
2023-04-10T18:26:10.291Z,99370.03
2023-04-10T18:28:38.887Z,99369.44
2023-04-10T18:31:08.556Z,99363.19
2023-04-10T18:33:36.801Z,99367.38
2023-04-10T18:36:07.010Z,99370.50
2023-04-10T18:38:36.148Z,99364.59
2023-04-10T18:41:04.763Z,99366.59
2023-04-10T18:43:32.968Z,99366.66
2023-04-10T18:46:01.648Z,99372.09
2023-04-10T18:48:29.921Z,99370.16
2023-04-10T18:50:58.066Z,99365.25
2023-04-10T18:53:27.757Z,99366.03
2023-04-10T18:55:56.359Z,99368.31
2023-04-10T18:58:25.708Z,99364.75
2023-04-10T19:00:55.268Z,99365.78
2023-04-10T19:03:23.590Z,99356.41
2023-04-10T19:05:51.887Z,99355.06
2023-04-10T19:08:20.077Z,99360.59
2023-04-10T19:10:49.765Z,99353.78
2023-04-10T19:13:19.347Z,99354.44
2023-04-10T19:15:48.347Z,99353.13
2023-04-10T19:18:16.740Z,99352.75
2023-04-10T19:20:50.332Z,99352.88
2023-04-10T19:23:20.708Z,99356.16
2023-04-10T19:25:53.234Z,99348.50
2023-04-10T19:28:23.832Z,99348.75
2023-04-10T19:30:52.004Z,99355.56
2023-04-10T19:33:21.096Z,99349.56
2023-04-10T19:35:49.082Z,99350.06
2023-04-10T19:38:17.194Z,99352.59
2023-04-10T19:40:45.655Z,99345.19
2023-04-10T19:43:15.355Z,99347.97
2023-04-10T19:45:43.689Z,99345.63
2023-04-10T19:48:16.062Z,99350.59
2023-04-10T19:50:44.303Z,99344.22
2023-04-10T19:53:15.591Z,99344.31
2023-04-10T19:55:45.961Z,99339.84
2023-04-10T19:58:35.694Z,99337.97
2023-04-10T20:01:04.624Z,99340.16
2023-04-10T20:03:33.510Z,99335.56
2023-04-10T20:06:03.475Z,99327.25
2023-04-10T20:08:32.087Z,99331.88
2023-04-10T20:11:00.478Z,99336.91
2023-04-10T20:13:29.986Z,99332.75
2023-04-10T20:15:58.777Z,99334.84
2023-04-10T20:18:27.045Z,99324.56
2023-04-10T20:20:56.546Z,99327.34
2023-04-10T20:23:25.466Z,99325.78
2023-04-10T20:25:54.146Z,99321.59
2023-04-10T20:28:22.258Z,99317.50
2023-04-10T20:30:52.028Z,99313.31
2023-04-10T20:33:20.512Z,99319.16
2023-04-10T20:35:49.052Z,99318.19
2023-04-10T20:38:19.672Z,99314.88
2023-04-10T20:40:48.038Z,99310.69
2023-04-10T20:43:16.297Z,99306.50
2023-04-10T20:45:44.489Z,99304.31
2023-04-10T20:48:14.489Z,99300.06
2023-04-10T20:50:44.644Z,99298.66
2023-04-10T20:53:13.848Z,99299.81
2023-04-10T20:55:42.132Z,99295.41
2023-04-10T20:58:10.465Z,99297.31
2023-04-10T21:00:39.948Z,99290.44
2023-04-10T21:03:08.535Z,99294.34
2023-04-10T21:05:42.711Z,99290.06
2023-04-10T21:08:11.601Z,99292.59
2023-04-10T21:10:44.309Z,99284.81
2023-04-10T21:13:14.259Z,99295.53
2023-04-10T21:15:42.635Z,99296.41
2023-04-10T21:18:11.477Z,99302.25
2023-04-10T21:20:39.900Z,99295.97
2023-04-10T21:23:09.558Z,99287.41
2023-04-10T21:25:38.005Z,99291.88
2023-04-10T21:28:06.231Z,99294.41
2023-04-10T21:30:35.952Z,99294.78
2023-04-10T21:33:04.506Z,99300.53
2023-04-10T21:35:32.731Z,99301.59
2023-04-10T21:38:02.238Z,99299.75
2023-04-10T21:40:34.581Z,99288.78
2023-04-10T21:43:02.924Z,99286.34
2023-04-10T21:45:31.308Z,99303.19
2023-04-10T21:48:00.567Z,99299.44
2023-04-10T21:50:28.805Z,99305.09
2023-04-10T21:52:57.123Z,99297.81
2023-04-10T21:55:25.218Z,99295.03
2023-04-10T21:57:55.529Z,99292.50
2023-04-10T22:00:23.587Z,99293.53
2023-04-10T22:02:53.951Z,99293.78
2023-04-10T22:05:22.739Z,99299.69
2023-04-10T22:07:50.923Z,99289.41
2023-04-10T22:10:19.090Z,99293.25
2023-04-10T22:12:48.753Z,99281.56
2023-04-10T22:15:20.037Z,99281.47
2023-04-10T22:17:48.551Z,99277.97
2023-04-10T22:20:17.210Z,99271.69
2023-04-10T22:22:45.391Z,99265.94
2023-04-10T22:25:13.561Z,99264.47
2023-04-10T22:27:41.769Z,99264.47
2023-04-10T22:30:11.092Z,99261.25
2023-04-10T22:32:40.602Z,99254.81
2023-04-10T22:35:09.687Z,99257.13
2023-04-10T22:37:37.902Z,99253.66
2023-04-10T22:40:07.156Z,99250.53
2023-04-10T22:42:35.275Z,99251.41
2023-04-10T22:45:04.220Z,99256.47
2023-04-10T22:47:32.255Z,99252.91
2023-04-10T22:50:01.698Z,99261.34
2023-04-10T22:52:29.772Z,99257.94
2023-04-10T22:54:58.837Z,99247.72
2023-04-10T22:57:27.025Z,99245.00
2023-04-10T22:59:55.440Z,99243.44
2023-04-10T23:02:23.722Z,99245.72
2023-04-10T23:04:51.983Z,99243.69
2023-04-10T23:07:22.031Z,99229.31
2023-04-10T23:09:50.177Z,99234.16
2023-04-10T23:12:18.465Z,99226.09
2023-04-10T23:14:46.634Z,99223.84
2023-04-10T23:17:15.481Z,99219.31
2023-04-10T23:19:43.662Z,99230.03
2023-04-10T23:22:12.683Z,99228.13
2023-04-10T23:24:42.276Z,99223.75
2023-04-10T23:27:10.424Z,99227.94
2023-04-10T23:29:38.519Z,99219.63
2023-04-10T23:32:07.983Z,99222.72
2023-04-10T23:34:36.055Z,99211.25
2023-04-10T23:37:04.129Z,99208.09
2023-04-10T23:39:32.249Z,99211.34
2023-04-10T23:42:04.434Z,99210.31
2023-04-10T23:44:32.598Z,99204.22
2023-04-10T23:47:00.886Z,99199.41
2023-04-10T23:49:29.684Z,99191.91
2023-04-10T23:51:57.695Z,99188.22
2023-04-10T23:54:25.870Z,99185.13
2023-04-10T23:56:54.837Z,99184.56
2023-04-10T23:59:24.366Z,99178.75
